sensor_id;sensor_type;location;lat;lon;timestamp;pressure;altitude;pressure_sealevel;temperature;humidity
22104;BME280;11218;48.886;9.426;2023-07-31T00:02:15;98035.06;;;18.04;62.84
22104;BME280;11218;48.886;9.426;2023-07-31T00:04:43;98037.28;;;18.02;63.08
22104;BME280;11218;48.886;9.426;2023-07-31T00:07:11;98030.28;;;17.96;63.19
22104;BME280;11218;48.886;9.426;2023-07-31T00:09:39;98040.69;;;17.94;63.77
22104;BME280;11218;48.886;9.426;2023-07-31T00:12:08;98027.44;;;17.88;64.24
22104;BME280;11218;48.886;9.426;2023-07-31T00:14:36;98031.84;;;17.84;64.19
22104;BME280;11218;48.886;9.426;2023-07-31T00:17:05;98026.22;;;17.80;65.06
22104;BME280;11218;48.886;9.426;2023-07-31T00:19:35;98025.50;;;17.75;64.72
22104;BME280;11218;48.886;9.426;2023-07-31T00:22:03;98020.13;;;17.69;64.66
22104;BME280;11218;48.886;9.426;2023-07-31T00:24:32;98025.63;;;17.64;64.58
22104;BME280;11218;48.886;9.426;2023-07-31T00:26:59;98029.44;;;17.63;64.97
22104;BME280;11218;48.886;9.426;2023-07-31T00:29:28;98026.00;;;17.58;65.34
22104;BME280;11218;48.886;9.426;2023-07-31T00:31:55;98013.78;;;17.55;65.43
22104;BME280;11218;48.886;9.426;2023-07-31T00:34:24;98020.84;;;17.56;65.47
22104;BME280;11218;48.886;9.426;2023-07-31T00:36:53;98022.25;;;17.54;64.77
22104;BME280;11218;48.886;9.426;2023-07-31T00:39:23;98023.44;;;17.48;65.67
22104;BME280;11218;48.886;9.426;2023-07-31T00:41:51;98021.50;;;17.48;65.33
22104;BME280;11218;48.886;9.426;2023-07-31T00:44:19;98029.47;;;17.45;65.63
22104;BME280;11218;48.886;9.426;2023-07-31T00:46:47;98034.38;;;17.42;65.73
22104;BME280;11218;48.886;9.426;2023-07-31T00:49:15;98034.38;;;17.42;65.77
22104;BME280;11218;48.886;9.426;2023-07-31T00:51:44;98034.97;;;17.39;65.79
22104;BME280;11218;48.886;9.426;2023-07-31T00:54:13;98027.09;;;17.38;65.89
22104;BME280;11218;48.886;9.426;2023-07-31T00:56:44;98030.13;;;17.36;66.13
22104;BME280;11218;48.886;9.426;2023-07-31T00:59:13;98029.59;;;17.34;66.38
22104;BME280;11218;48.886;9.426;2023-07-31T01:01:41;98027.97;;;17.33;66.75
22104;BME280;11218;48.886;9.426;2023-07-31T01:04:09;98028.56;;;17.30;66.89
22104;BME280;11218;48.886;9.426;2023-07-31T01:06:44;98031.06;;;17.27;66.88
22104;BME280;11218;48.886;9.426;2023-07-31T01:09:21;98030.56;;;17.25;67.14
22104;BME280;11218;48.886;9.426;2023-07-31T01:11:53;98025.69;;;17.22;66.85
22104;BME280;11218;48.886;9.426;2023-07-31T01:14:24;98031.44;;;17.20;67.24
22104;BME280;11218;48.886;9.426;2023-07-31T01:16:52;98028.47;;;17.17;67.34
22104;BME280;11218;48.886;9.426;2023-07-31T01:19:22;98029.28;;;17.17;67.21
22104;BME280;11218;48.886;9.426;2023-07-31T01:22:03;98022.81;;;17.13;67.41
22104;BME280;11218;48.886;9.426;2023-07-31T01:24:49;98018.19;;;17.14;67.48
22104;BME280;11218;48.886;9.426;2023-07-31T01:27:24;98015.16;;;17.15;67.37
22104;BME280;11218;48.886;9.426;2023-07-31T01:29:58;98009.81;;;17.10;67.55
22104;BME280;11218;48.886;9.426;2023-07-31T01:32:28;98009.69;;;17.01;67.72
22104;BME280;11218;48.886;9.426;2023-07-31T01:34:58;98010.78;;;17.00;68.25
22104;BME280;11218;48.886;9.426;2023-07-31T01:37:28;98005.34;;;17.00;67.86
22104;BME280;11218;48.886;9.426;2023-07-31T01:39:57;97987.47;;;16.94;68.11
22104;BME280;11218;48.886;9.426;2023-07-31T01:42:27;97982.38;;;16.88;68.93
22104;BME280;11218;48.886;9.426;2023-07-31T01:44:55;97982.38;;;16.88;68.84
22104;BME280;11218;48.886;9.426;2023-07-31T01:47:23;97983.25;;;16.83;68.83
22104;BME280;11218;48.886;9.426;2023-07-31T01:49:51;97986.84;;;16.79;68.93
22104;BME280;11218;48.886;9.426;2023-07-31T01:52:19;97984.72;;;16.75;69.25
22104;BME280;11218;48.886;9.426;2023-07-31T01:54:47;97988.31;;;16.71;69.39
22104;BME280;11218;48.886;9.426;2023-07-31T01:57:15;97995.06;;;16.73;69.45
22104;BME280;11218;48.886;9.426;2023-07-31T01:59:45;97983.44;;;16.68;69.87
22104;BME280;11218;48.886;9.426;2023-07-31T02:02:13;97982.88;;;16.71;69.89
22104;BME280;11218;48.886;9.426;2023-07-31T02:04:41;97974.72;;;16.71;69.79
22104;BME280;11218;48.886;9.426;2023-07-31T02:07:10;97974.72;;;16.71;70.07
22104;BME280;11218;48.886;9.426;2023-07-31T02:09:38;97976.03;;;16.73;69.72
22104;BME280;11218;48.886;9.426;2023-07-31T02:12:07;97975.16;;;16.78;69.71
22104;BME280;11218;48.886;9.426;2023-07-31T02:14:36;97969.97;;;16.82;69.57
22104;BME280;11218;48.886;9.426;2023-07-31T02:17:06;97969.09;;;16.86;69.60
22104;BME280;11218;48.886;9.426;2023-07-31T02:19:34;97969.31;;;16.90;69.23
22104;BME280;11218;48.886;9.426;2023-07-31T02:22:03;97960.94;;;16.86;69.03
22104;BME280;11218;48.886;9.426;2023-07-31T02:24:31;97960.94;;;16.86;69.34
22104;BME280;11218;48.886;9.426;2023-07-31T02:26:59;97954.69;;;16.86;69.03
22104;BME280;11218;48.886;9.426;2023-07-31T02:29:27;97957.09;;;16.87;69.20
22104;BME280;11218;48.886;9.426;2023-07-31T02:31:55;97957.69;;;16.84;69.38
22104;BME280;11218;48.886;9.426;2023-07-31T02:34:25;97945.41;;;16.87;69.19
22104;BME280;11218;48.886;9.426;2023-07-31T02:36:53;97954.09;;;16.89;69.09
22104;BME280;11218;48.886;9.426;2023-07-31T02:39:21;97960.94;;;16.86;69.14
22104;BME280;11218;48.886;9.426;2023-07-31T02:41:49;97955.19;;;16.88;69.01
22104;BME280;11218;48.886;9.426;2023-07-31T02:44:17;97954.09;;;16.89;69.10
22104;BME280;11218;48.886;9.426;2023-07-31T02:46:47;97945.34;;;16.92;69.21
22104;BME280;11218;48.886;9.426;2023-07-31T02:49:15;97937.72;;;16.94;68.79
22104;BME280;11218;48.886;9.426;2023-07-31T02:51:45;97931.75;;;16.92;68.76
22104;BME280;11218;48.886;9.426;2023-07-31T02:54:13;97930.44;;;16.89;69.38
22104;BME280;11218;48.886;9.426;2023-07-31T02:56:41;97924.19;;;16.89;68.92
22104;BME280;11218;48.886;9.426;2023-07-31T02:59:10;97918.75;;;16.89;69.59
22104;BME280;11218;48.886;9.426;2023-07-31T03:01:38;97918.44;;;16.90;69.38
22104;BME280;11218;48.886;9.426;2023-07-31T03:04:06;97917.34;;;16.91;69.06
22104;BME280;11218;48.886;9.426;2023-07-31T03:06:35;97920.06;;;16.91;69.04
22104;BME280;11218;48.886;9.426;2023-07-31T03:09:05;97921.97;;;16.91;68.86
22104;BME280;11218;48.886;9.426;2023-07-31T03:11:33;97917.34;;;16.91;68.98
22104;BME280;11218;48.886;9.426;2023-07-31T03:14:01;97919.25;;;16.91;68.75
22104;BME280;11218;48.886;9.426;2023-07-31T03:16:29;97916.03;;;16.89;68.66
22104;BME280;11218;48.886;9.426;2023-07-31T03:18:57;97918.44;;;16.90;68.67
22104;BME280;11218;48.886;9.426;2023-07-31T03:21:25;97931.25;;;16.90;68.39
22104;BME280;11218;48.886;9.426;2023-07-31T03:23:54;97927.41;;;16.91;68.42
22104;BME280;11218;48.886;9.426;2023-07-31T03:26:23;97937.31;;;16.82;68.64
22104;BME280;11218;48.886;9.426;2023-07-31T03:28:51;97936.22;;;16.83;68.39
22104;BME280;11218;48.886;9.426;2023-07-31T03:31:19;97939.31;;;16.76;68.96
22104;BME280;11218;48.886;9.426;2023-07-31T03:33:48;97939.59;;;16.74;68.93
22104;BME280;11218;48.886;9.426;2023-07-31T03:36:16;97930.94;;;16.72;68.83
22104;BME280;11218;48.886;9.426;2023-07-31T03:38:46;97926.59;;;16.71;68.69
22104;BME280;11218;48.886;9.426;2023-07-31T03:41:14;97931.22;;;16.71;69.05
22104;BME280;11218;48.886;9.426;2023-07-31T03:43:45;97942.59;;;16.73;69.01
22104;BME280;11218;48.886;9.426;2023-07-31T03:46:14;97939.81;;;16.78;68.41
22104;BME280;11218;48.886;9.426;2023-07-31T03:48:42;97937.75;;;16.70;68.79
22104;BME280;11218;48.886;9.426;2023-07-31T03:51:10;97934.50;;;16.68;68.60
22104;BME280;11218;48.886;9.426;2023-07-31T03:53:39;97938.28;;;16.72;68.83
22104;BME280;11218;48.886;9.426;2023-07-31T03:56:07;97933.41;;;16.69;68.42
22104;BME280;11218;48.886;9.426;2023-07-31T03:58:35;97939.66;;;16.69;68.32
22104;BME280;11218;48.886;9.426;2023-07-31T04:01:05;97935.31;;;16.68;68.52
22104;BME280;11218;48.886;9.426;2023-07-31T04:03:34;97941.06;;;16.67;68.11
22104;BME280;11218;48.886;9.426;2023-07-31T04:06:02;97937.81;;;16.65;68.43
22104;BME280;11218;48.886;9.426;2023-07-31T04:08:31;97943.19;;;16.70;68.46
22104;BME280;11218;48.886;9.426;2023-07-31T04:10:59;97933.19;;;16.65;68.90
22104;BME280;11218;48.886;9.426;2023-07-31T04:13:29;97934.81;;;16.66;68.68
22104;BME280;11218;48.886;9.426;2023-07-31T04:15:57;97935.84;;;16.70;68.48
22104;BME280;11218;48.886;9.426;2023-07-31T04:18:27;97936.38;;;16.72;68.52
22104;BME280;11218;48.886;9.426;2023-07-31T04:20:55;97942.38;;;16.69;68.35
22104;BME280;11218;48.886;9.426;2023-07-31T04:23:23;97928.56;;;16.66;68.72
22104;BME280;11218;48.886;9.426;2023-07-31T04:25:51;97928.78;;;16.69;68.77
22104;BME280;11218;48.886;9.426;2023-07-31T04:28:19;97927.16;;;16.68;68.90
22104;BME280;11218;48.886;9.426;2023-07-31T04:30:48;97927.69;;;16.70;69.07
22104;BME280;11218;48.886;9.426;2023-07-31T04:33:16;97926.59;;;16.71;68.43
22104;BME280;11218;48.886;9.426;2023-07-31T04:35:50;97924.44;;;16.68;68.59
22104;BME280;11218;48.886;9.426;2023-07-31T04:38:19;97917.34;;;16.72;68.33
22104;BME280;11218;48.886;9.426;2023-07-31T04:40:47;97913.50;;;16.73;68.35
22104;BME280;11218;48.886;9.426;2023-07-31T04:43:15;97912.13;;;16.76;68.16
22104;BME280;11218;48.886;9.426;2023-07-31T04:45:45;97910.94;;;16.82;68.27
22104;BME280;11218;48.886;9.426;2023-07-31T04:48:15;97921.75;;;16.87;67.81
22104;BME280;11218;48.886;9.426;2023-07-31T04:50:43;97922.78;;;16.91;67.16
22104;BME280;11218;48.886;9.426;2023-07-31T04:53:13;97924.41;;;16.92;67.62
22104;BME280;11218;48.886;9.426;2023-07-31T04:55:41;97915.72;;;16.90;67.54
22104;BME280;11218;48.886;9.426;2023-07-31T04:58:09;97923.00;;;16.95;67.36
22104;BME280;11218;48.886;9.426;2023-07-31T05:00:37;97918.31;;;17.00;67.43
22104;BME280;11218;48.886;9.426;2023-07-31T05:03:05;97919.91;;;17.01;67.34
22104;BME280;11218;48.886;9.426;2023-07-31T05:05:33;97910.97;;;17.01;67.30
22104;BME280;11218;48.886;9.426;2023-07-31T05:08:03;97914.41;;;17.06;67.71
22104;BME280;11218;48.886;9.426;2023-07-31T05:10:32;97905.44;;;17.06;67.62
22104;BME280;11218;48.886;9.426;2023-07-31T05:13:00;97904.81;;;17.09;67.47
22104;BME280;11218;48.886;9.426;2023-07-31T05:15:28;97909.38;;;17.14;67.90
22104;BME280;11218;48.886;9.426;2023-07-31T05:17:56;97909.50;;;17.22;67.87
22104;BME280;11218;48.886;9.426;2023-07-31T05:20:25;97904.59;;;17.24;67.54
22104;BME280;11218;48.886;9.426;2023-07-31T05:22:54;97911.56;;;17.30;67.10
22104;BME280;11218;48.886;9.426;2023-07-31T05:25:22;97912.38;;;17.31;67.29
22104;BME280;11218;48.886;9.426;2023-07-31T05:27:51;97908.75;;;17.35;67.34
22104;BME280;11218;48.886;9.426;2023-07-31T05:30:19;97897.81;;;17.40;67.33
22104;BME280;11218;48.886;9.426;2023-07-31T05:32:48;97900.22;;;17.42;67.21
22104;BME280;11218;48.886;9.426;2023-07-31T05:35:16;97901.31;;;17.41;67.14
22104;BME280;11218;48.886;9.426;2023-07-31T05:37:44;97901.84;;;17.43;67.40
22104;BME280;11218;48.886;9.426;2023-07-31T05:40:12;97908.31;;;17.47;67.44
22104;BME280;11218;48.886;9.426;2023-07-31T05:42:40;97906.69;;;17.46;67.45
22104;BME280;11218;48.886;9.426;2023-07-31T05:45:10;97913.75;;;17.47;67.04
22104;BME280;11218;48.886;9.426;2023-07-31T05:47:40;97912.06;;;17.51;66.79
22104;BME280;11218;48.886;9.426;2023-07-31T05:50:08;97903.50;;;17.58;66.38
22104;BME280;11218;48.886;9.426;2023-07-31T05:52:36;97906.44;;;17.61;66.72
22104;BME280;11218;48.886;9.426;2023-07-31T05:55:05;97898.13;;;17.71;66.22
22104;BME280;11218;48.886;9.426;2023-07-31T05:57:34;97905.59;;;17.80;66.53
22104;BME280;11218;48.886;9.426;2023-07-31T06:00:03;97906.72;;;17.92;66.06
22104;BME280;11218;48.886;9.426;2023-07-31T06:02:33;97900.66;;;17.95;65.27
22104;BME280;11218;48.886;9.426;2023-07-31T06:05:04;97892.28;;;18.05;65.28
22104;BME280;11218;48.886;9.426;2023-07-31T06:07:33;97898.44;;;18.11;65.36
22104;BME280;11218;48.886;9.426;2023-07-31T06:10:01;97895.63;;;18.16;65.76
22104;BME280;11218;48.886;9.426;2023-07-31T06:12:31;97898.97;;;18.13;65.27
22104;BME280;11218;48.886;9.426;2023-07-31T06:15:00;97892.91;;;18.16;64.59
22104;BME280;11218;48.886;9.426;2023-07-31T06:17:28;97898.16;;;18.26;64.86
22104;BME280;11218;48.886;9.426;2023-07-31T06:19:58;97895.72;;;18.38;63.49
22104;BME280;11218;48.886;9.426;2023-07-31T06:22:26;97896.84;;;18.51;63.31
22104;BME280;11218;48.886;9.426;2023-07-31T06:24:54;97892.28;;;18.60;62.81
22104;BME280;11218;48.886;9.426;2023-07-31T06:27:22;97890.06;;;18.62;62.81
22104;BME280;11218;48.886;9.426;2023-07-31T06:29:51;97893.78;;;18.66;63.01
22104;BME280;11218;48.886;9.426;2023-07-31T06:32:19;97900.75;;;18.73;62.40
22104;BME280;11218;48.886;9.426;2023-07-31T06:34:47;97891.66;;;18.77;62.03
22104;BME280;11218;48.886;9.426;2023-07-31T06:37:17;97901.25;;;18.75;62.83
22104;BME280;11218;48.886;9.426;2023-07-31T06:39:45;97911.75;;;18.81;62.66
22104;BME280;11218;48.886;9.426;2023-07-31T06:42:13;97909.50;;;18.83;62.89
22104;BME280;11218;48.886;9.426;2023-07-31T06:44:41;97911.72;;;18.95;62.36
22104;BME280;11218;48.886;9.426;2023-07-31T06:47:10;97902.53;;;18.91;62.34
22104;BME280;11218;48.886;9.426;2023-07-31T06:49:38;97898.75;;;19.00;62.08
22104;BME280;11218;48.886;9.426;2023-07-31T06:52:06;97897.91;;;19.14;62.63
22104;BME280;11218;48.886;9.426;2023-07-31T06:54:37;97891.09;;;19.25;62.30
22104;BME280;11218;48.886;9.426;2023-07-31T06:57:06;97906.91;;;19.36;61.71
22104;BME280;11218;48.886;9.426;2023-07-31T06:59:34;97909.38;;;19.47;61.53
22104;BME280;11218;48.886;9.426;2023-07-31T07:02:03;97902.81;;;19.48;61.30
22104;BME280;11218;48.886;9.426;2023-07-31T07:04:32;97905.84;;;19.46;60.75
22104;BME280;11218;48.886;9.426;2023-07-31T07:07:01;97899.56;;;19.46;62.06
22104;BME280;11218;48.886;9.426;2023-07-31T07:09:30;97902.50;;;19.49;61.94
22104;BME280;11218;48.886;9.426;2023-07-31T07:11:59;97907.22;;;19.57;61.73
22104;BME280;11218;48.886;9.426;2023-07-31T07:14:27;97907.47;;;19.69;61.13
22104;BME280;11218;48.886;9.426;2023-07-31T07:16:55;97897.94;;;19.89;60.36
22104;BME280;11218;48.886;9.426;2023-07-31T07:19:24;97886.75;;;19.99;60.00
22104;BME280;11218;48.886;9.426;2023-07-31T07:21:52;97898.19;;;20.10;59.07
22104;BME280;11218;48.886;9.426;2023-07-31T07:24:20;97891.13;;;20.18;59.99
22104;BME280;11218;48.886;9.426;2023-07-31T07:26:48;97886.22;;;20.37;58.74
22104;BME280;11218;48.886;9.426;2023-07-31T07:29:20;97884.53;;;20.58;58.93
22104;BME280;11218;48.886;9.426;2023-07-31T07:31:48;97883.44;;;20.77;58.70
22104;BME280;11218;48.886;9.426;2023-07-31T07:34:16;97890.03;;;20.84;57.07
22104;BME280;11218;48.886;9.426;2023-07-31T07:36:44;97886.16;;;20.85;56.14
22104;BME280;11218;48.886;9.426;2023-07-31T07:39:13;97880.22;;;20.92;56.10
22104;BME280;11218;48.886;9.426;2023-07-31T07:41:41;97884.41;;;20.98;55.95
22104;BME280;11218;48.886;9.426;2023-07-31T07:44:09;97880.88;;;20.97;55.84
22104;BME280;11218;48.886;9.426;2023-07-31T07:46:41;97884.56;;;20.93;54.42
22104;BME280;11218;48.886;9.426;2023-07-31T07:49:10;97875.84;;;20.82;55.08
22104;BME280;11218;48.886;9.426;2023-07-31T07:51:38;97881.50;;;20.94;54.56
22104;BME280;11218;48.886;9.426;2023-07-31T07:54:06;97866.84;;;20.90;54.95
22104;BME280;11218;48.886;9.426;2023-07-31T07:56:34;97877.31;;;20.97;54.02
22104;BME280;11218;48.886;9.426;2023-07-31T07:59:04;97879.41;;;20.91;54.50
22104;BME280;11218;48.886;9.426;2023-07-31T08:01:32;97876.69;;;21.00;55.56
22104;BME280;11218;48.886;9.426;2023-07-31T08:04:02;97875.88;;;21.17;54.17
22104;BME280;11218;48.886;9.426;2023-07-31T08:06:30;97873.97;;;21.26;53.29
22104;BME280;11218;48.886;9.426;2023-07-31T08:08:58;97880.91;;;21.23;53.64
22104;BME280;11218;48.886;9.426;2023-07-31T08:11:32;97873.31;;;21.20;53.45
22104;BME280;11218;48.886;9.426;2023-07-31T08:14:00;97873.16;;;21.17;53.44
22104;BME280;11218;48.886;9.426;2023-07-31T08:16:28;97861.72;;;21.23;52.17
22104;BME280;11218;48.886;9.426;2023-07-31T08:18:56;97859.00;;;21.23;53.14
22104;BME280;11218;48.886;9.426;2023-07-31T08:21:26;97857.88;;;21.24;53.03
22104;BME280;11218;48.886;9.426;2023-07-31T08:23:54;97867.69;;;21.34;52.85
22104;BME280;11218;48.886;9.426;2023-07-31T08:26:22;97863.81;;;21.44;52.13
22104;BME280;11218;48.886;9.426;2023-07-31T08:28:51;97860.25;;;21.52;52.50
22104;BME280;11218;48.886;9.426;2023-07-31T08:31:19;97861.91;;;21.82;51.08
22104;BME280;11218;48.886;9.426;2023-07-31T08:33:47;97868.00;;;22.05;50.32
22104;BME280;11218;48.886;9.426;2023-07-31T08:36:16;97854.63;;;22.04;50.46
22104;BME280;11218;48.886;9.426;2023-07-31T08:38:46;97862.38;;;21.93;50.79
22104;BME280;11218;48.886;9.426;2023-07-31T08:41:16;97850.94;;;21.91;50.05
22104;BME280;11218;48.886;9.426;2023-07-31T08:43:45;97851.81;;;22.21;49.65
22104;BME280;11218;48.886;9.426;2023-07-31T08:46:13;97852.47;;;22.39;48.58
22104;BME280;11218;48.886;9.426;2023-07-31T08:48:42;97843.50;;;22.59;48.89
22104;BME280;11218;48.886;9.426;2023-07-31T08:51:13;97829.41;;;22.90;48.32
22104;BME280;11218;48.886;9.426;2023-07-31T08:53:42;97832.44;;;22.97;48.00
22104;BME280;11218;48.886;9.426;2023-07-31T08:56:13;97823.88;;;23.11;48.26
22104;BME280;11218;48.886;9.426;2023-07-31T08:58:44;97839.28;;;23.24;48.25
22104;BME280;11218;48.886;9.426;2023-07-31T09:01:14;97839.53;;;23.31;47.81
22104;BME280;11218;48.886;9.426;2023-07-31T09:03:44;97831.19;;;23.40;47.65
22104;BME280;11218;48.886;9.426;2023-07-31T09:06:13;97829.03;;;23.45;48.44
22104;BME280;11218;48.886;9.426;2023-07-31T09:08:43;97828.50;;;23.52;48.17
22104;BME280;11218;48.886;9.426;2023-07-31T09:11:13;97831.84;;;23.57;46.93
22104;BME280;11218;48.886;9.426;2023-07-31T09:13:42;97817.66;;;23.55;45.92
22104;BME280;11218;48.886;9.426;2023-07-31T09:16:11;97807.81;;;23.54;46.22
22104;BME280;11218;48.886;9.426;2023-07-31T09:18:53;97808.84;;;23.62;46.59
22104;BME280;11218;48.886;9.426;2023-07-31T09:21:21;97820.41;;;23.55;47.03
22104;BME280;11218;48.886;9.426;2023-07-31T09:23:49;97828.00;;;23.38;46.78
22104;BME280;11218;48.886;9.426;2023-07-31T09:26:32;97822.66;;;23.20;46.97
22104;BME280;11218;48.886;9.426;2023-07-31T09:29:04;97828.66;;;23.02;47.49
22104;BME280;11218;48.886;9.426;2023-07-31T09:31:41;97831.50;;;22.93;48.44
22104;BME280;11218;48.886;9.426;2023-07-31T09:34:10;97825.94;;;22.81;47.67
22104;BME280;11218;48.886;9.426;2023-07-31T09:36:41;97825.34;;;22.67;48.39
22104;BME280;11218;48.886;9.426;2023-07-31T09:39:10;97822.66;;;22.58;49.68
22104;BME280;11218;48.886;9.426;2023-07-31T09:41:42;97820.53;;;22.63;49.20
22104;BME280;11218;48.886;9.426;2023-07-31T09:44:11;97811.69;;;22.58;49.11
22104;BME280;11218;48.886;9.426;2023-07-31T09:46:39;97815.09;;;22.55;50.61
22104;BME280;11218;48.886;9.426;2023-07-31T09:49:08;97800.06;;;22.61;49.15
22104;BME280;11218;48.886;9.426;2023-07-31T09:51:37;97776.97;;;22.62;50.04
22104;BME280;11218;48.886;9.426;2023-07-31T09:54:10;97779.84;;;22.66;49.69
22104;BME280;11218;48.886;9.426;2023-07-31T09:56:44;97788.88;;;22.66;49.94
22104;BME280;11218;48.886;9.426;2023-07-31T09:59:14;97778.22;;;22.65;50.07
22104;BME280;11218;48.886;9.426;2023-07-31T10:01:45;97769.19;;;22.64;50.07
22104;BME280;11218;48.886;9.426;2023-07-31T10:04:14;97768.53;;;22.67;49.46
22104;BME280;11218;48.886;9.426;2023-07-31T10:06:43;97764.66;;;22.68;50.22
22104;BME280;11218;48.886;9.426;2023-07-31T10:09:15;97765.38;;;22.77;49.89
22104;BME280;11218;48.886;9.426;2023-07-31T10:11:51;97771.41;;;22.71;50.22
22104;BME280;11218;48.886;9.426;2023-07-31T10:14:24;97761.56;;;22.90;50.21
22104;BME280;11218;48.886;9.426;2023-07-31T10:16:52;97763.66;;;23.06;50.00
22104;BME280;11218;48.886;9.426;2023-07-31T10:19:21;97757.63;;;23.12;48.71
22104;BME280;11218;48.886;9.426;2023-07-31T10:21:50;97757.28;;;23.14;48.36
22104;BME280;11218;48.886;9.426;2023-07-31T10:24:18;97757.63;;;23.12;48.73
22104;BME280;11218;48.886;9.426;2023-07-31T10:26:49;97763.38;;;23.19;48.10
22104;BME280;11218;48.886;9.426;2023-07-31T10:29:19;97763.03;;;23.21;46.68
22104;BME280;11218;48.886;9.426;2023-07-31T10:31:48;97762.19;;;23.08;47.93
22104;BME280;11218;48.886;9.426;2023-07-31T10:34:16;97759.66;;;23.03;48.18
22104;BME280;11218;48.886;9.426;2023-07-31T10:36:44;97758.75;;;22.99;48.20
22104;BME280;11218;48.886;9.426;2023-07-31T10:39:33;97748.66;;;23.03;48.04
22104;BME280;11218;48.886;9.426;2023-07-31T10:42:11;97744.03;;;23.16;47.87
22104;BME280;11218;48.886;9.426;2023-07-31T10:44:44;97743.75;;;23.42;49.55
22104;BME280;11218;48.886;9.426;2023-07-31T10:47:14;97734.97;;;23.61;47.39
22104;BME280;11218;48.886;9.426;2023-07-31T10:49:45;97736.03;;;23.68;47.96
22104;BME280;11218;48.886;9.426;2023-07-31T10:52:13;97733.69;;;23.82;47.31
22104;BME280;11218;48.886;9.426;2023-07-31T10:54:41;97729.94;;;23.75;46.05
22104;BME280;11218;48.886;9.426;2023-07-31T10:57:20;97735.78;;;23.61;47.65
22104;BME280;11218;48.886;9.426;2023-07-31T10:59:49;97743.22;;;23.61;47.24
22104;BME280;11218;48.886;9.426;2023-07-31T11:02:25;97747.56;;;23.62;46.74
22104;BME280;11218;48.886;9.426;2023-07-31T11:05:07;97741.84;;;23.67;46.95
22104;BME280;11218;48.886;9.426;2023-07-31T11:07:46;97739.00;;;23.75;46.21
22104;BME280;11218;48.886;9.426;2023-07-31T11:10:18;97730.28;;;23.73;47.08
22104;BME280;11218;48.886;9.426;2023-07-31T11:12:48;97723.28;;;23.88;46.90
22104;BME280;11218;48.886;9.426;2023-07-31T11:15:17;97722.78;;;24.22;45.57
22104;BME280;11218;48.886;9.426;2023-07-31T11:17:45;97708.03;;;24.55;45.68
22104;BME280;11218;48.886;9.426;2023-07-31T11:20:13;97707.38;;;24.74;44.16
22104;BME280;11218;48.886;9.426;2023-07-31T11:22:41;97715.16;;;24.84;44.97
22104;BME280;11218;48.886;9.426;2023-07-31T11:25:11;97720.22;;;25.10;45.04
22104;BME280;11218;48.886;9.426;2023-07-31T11:27:39;97715.59;;;25.14;44.32
22104;BME280;11218;48.886;9.426;2023-07-31T11:30:11;97701.53;;;25.03;43.83
22104;BME280;11218;48.886;9.426;2023-07-31T11:32:39;97704.47;;;25.26;44.17
22104;BME280;11218;48.886;9.426;2023-07-31T11:35:12;97710.19;;;25.33;43.14
22104;BME280;11218;48.886;9.426;2023-07-31T11:37:41;97713.03;;;25.21;43.36
22104;BME280;11218;48.886;9.426;2023-07-31T11:40:10;97706.34;;;25.06;43.60
22104;BME280;11218;48.886;9.426;2023-07-31T11:42:39;97709.38;;;24.89;45.04
22104;BME280;11218;48.886;9.426;2023-07-31T11:45:10;97701.03;;;24.85;44.18
22104;BME280;11218;48.886;9.426;2023-07-31T11:47:38;97688.13;;;24.74;43.79
22104;BME280;11218;48.886;9.426;2023-07-31T11:50:10;97694.63;;;24.53;44.88
22104;BME280;11218;48.886;9.426;2023-07-31T11:52:42;97702.38;;;24.36;45.20
22104;BME280;11218;48.886;9.426;2023-07-31T11:55:13;97689.56;;;24.28;45.87
22104;BME280;11218;48.886;9.426;2023-07-31T11:57:43;97680.28;;;24.08;46.01
22104;BME280;11218;48.886;9.426;2023-07-31T12:00:16;97673.06;;;24.03;46.34
22104;BME280;11218;48.886;9.426;2023-07-31T12:02:45;97678.81;;;23.86;46.56
22104;BME280;11218;48.886;9.426;2023-07-31T12:05:14;97675.84;;;23.79;46.96
22104;BME280;11218;48.886;9.426;2023-07-31T12:07:47;97678.88;;;23.74;47.40
22104;BME280;11218;48.886;9.426;2023-07-31T12:10:29;97655.84;;;23.66;47.10
22104;BME280;11218;48.886;9.426;2023-07-31T12:12:59;97665.25;;;23.65;48.52
22104;BME280;11218;48.886;9.426;2023-07-31T12:15:37;97659.41;;;23.67;48.72
22104;BME280;11218;48.886;9.426;2023-07-31T12:18:07;97664.53;;;23.68;46.98
22104;BME280;11218;48.886;9.426;2023-07-31T12:20:40;97667.41;;;23.72;47.94
22104;BME280;11218;48.886;9.426;2023-07-31T12:23:14;97658.25;;;23.68;47.82
22104;BME280;11218;48.886;9.426;2023-07-31T12:25:42;97649.44;;;23.62;47.94
22104;BME280;11218;48.886;9.426;2023-07-31T12:28:10;97651.84;;;23.64;48.01
22104;BME280;11218;48.886;9.426;2023-07-31T12:30:43;97638.56;;;23.66;47.71
22104;BME280;11218;48.886;9.426;2023-07-31T12:33:14;97658.59;;;23.66;47.27
22104;BME280;11218;48.886;9.426;2023-07-31T12:35:43;97650.22;;;23.63;47.53
22104;BME280;11218;48.886;9.426;2023-07-31T12:38:13;97653.56;;;23.68;47.77
22104;BME280;11218;48.886;9.426;2023-07-31T12:40:41;97643.13;;;23.74;47.90
22104;BME280;11218;48.886;9.426;2023-07-31T12:43:09;97638.78;;;23.73;48.48
22104;BME280;11218;48.886;9.426;2023-07-31T12:45:37;97629.03;;;23.75;48.97
22104;BME280;11218;48.886;9.426;2023-07-31T12:48:07;97634.06;;;23.73;48.54
22104;BME280;11218;48.886;9.426;2023-07-31T12:50:35;97619.94;;;23.87;48.00
22104;BME280;11218;48.886;9.426;2023-07-31T12:53:05;97619.44;;;23.97;47.61
22104;BME280;11218;48.886;9.426;2023-07-31T12:55:34;97605.59;;;23.93;47.74
22104;BME280;11218;48.886;9.426;2023-07-31T12:58:03;97605.50;;;23.90;48.63
22104;BME280;11218;48.886;9.426;2023-07-31T13:00:32;97601.47;;;24.00;47.36
22104;BME280;11218;48.886;9.426;2023-07-31T13:03:00;97601.38;;;23.84;47.05
22104;BME280;11218;48.886;9.426;2023-07-31T13:05:30;97601.72;;;23.82;47.62
22104;BME280;11218;48.886;9.426;2023-07-31T13:07:59;97605.09;;;23.76;48.64
22104;BME280;11218;48.886;9.426;2023-07-31T13:10:28;97593.38;;;23.79;49.10
22104;BME280;11218;48.886;9.426;2023-07-31T13:12:57;97591.34;;;23.76;49.53